Time;durP1;ratioP1;P1;durP2;ratioP2;P2;SDS_P1;SDS_P2;PMS_P1;PMS_P2;Temp;Humidity;BMP_temperature;BMP_pressure;BME280_temperature;BME280_humidity;BME280_pressure;Samples;Min_cycle;Max_cycle;Signal;HPM_P1;HPM_P2
2021/07/22 00:02:33;;;;;;;12.85;7.78;;;;;;;;;;6273079;22;20194;-89
2021/07/22 00:05:38;;;;;;;14.40;8.15;;;;;;;;;;6272859;22;20208;-90
2021/07/22 00:08:43;;;;;;;13.50;7.60;;;;;;;;;;6273196;22;20157;-89
2021/07/22 00:11:48;;;;;;;12.43;7.13;;;;;;;;;;6272577;22;20193;-88
2021/07/22 00:14:53;;;;;;;15.93;7.95;;;;;;;;;;6272443;22;20261;-89
2021/07/22 00:18:00;;;;;;;14.32;8.35;;;;;;;;;;6272408;22;20348;-91
2021/07/22 00:21:07;;;;;;;15.02;7.72;;;;;;;;;;6273080;22;20166;-88
2021/07/22 00:24:13;;;;;;;19.55;8.52;;;;;;;;;;6272321;22;20169;-90
2021/07/22 00:27:18;;;;;;;11.98;7.32;;;;;;;;;;6271633;22;20209;-89
2021/07/22 00:30:24;;;;;;;10.80;6.60;;;;;;;;;;6272146;22;20169;-88
2021/07/22 00:33:30;;;;;;;17.15;7.68;;;;;;;;;;6272635;22;20166;-88
2021/07/22 00:36:35;;;;;;;13.27;7.43;;;;;;;;;;6272884;22;20193;-87
2021/07/22 00:39:40;;;;;;;15.07;7.88;;;;;;;;;;6272871;22;20276;-88
2021/07/22 00:42:54;;;;;;;13.52;7.25;;;;;;;;;;6269834;22;20185;-88
2021/07/22 00:46:00;;;;;;;19.25;8.07;;;;;;;;;;6272050;22;20213;-90
2021/07/22 00:49:10;;;;;;;13.80;7.57;;;;;;;;;;6274924;22;20153;-89
2021/07/22 00:52:17;;;;;;;14.90;7.35;;;;;;;;;;6273894;22;20288;-89
2021/07/22 00:55:24;;;;;;;12.65;7.05;;;;;;;;;;6272720;22;20174;-90
2021/07/22 00:58:29;;;;;;;13.57;7.57;;;;;;;;;;6271122;22;20250;-87
2021/07/22 01:01:34;;;;;;;14.05;7.25;;;;;;;;;;6274083;22;20209;-89
2021/07/22 01:04:41;;;;;;;17.58;7.68;;;;;;;;;;6272970;22;20613;-88
2021/07/22 01:07:46;;;;;;;13.23;7.30;;;;;;;;;;6271632;22;20162;-88
2021/07/22 01:10:51;;;;;;;12.70;7.15;;;;;;;;;;6272395;22;20247;-88
2021/07/22 01:13:58;;;;;;;11.80;6.68;;;;;;;;;;6272401;22;20238;-88
2021/07/22 01:17:10;;;;;;;15.00;7.32;;;;;;;;;;6271675;22;20275;-88
2021/07/22 01:20:17;;;;;;;12.77;6.80;;;;;;;;;;6273118;22;20169;-87
2021/07/22 01:23:23;;;;;;;14.80;7.20;;;;;;;;;;6272146;22;20175;-89
2021/07/22 01:26:50;;;;;;;11.38;6.22;;;;;;;;;;6291476;22;20173;-89
2021/07/22 01:30:31;;;;;;;13.48;6.93;;;;;;;;;;6289749;22;20177;-88
2021/07/22 01:33:37;;;;;;;16.02;6.40;;;;;;;;;;6273426;22;20165;-91
2021/07/22 01:36:44;;;;;;;11.27;6.80;;;;;;;;;;6272774;22;20161;-87
2021/07/22 01:39:49;;;;;;;12.63;6.60;;;;;;;;;;6271861;22;20173;-88
2021/07/22 01:42:55;;;;;;;12.80;7.47;;;;;;;;;;6270007;22;20570;-86
2021/07/22 01:46:05;;;;;;;11.27;7.03;;;;;;;;;;6270722;22;20150;-88
2021/07/22 01:49:11;;;;;;;12.48;7.38;;;;;;;;;;6272375;22;20169;-89
2021/07/22 01:52:17;;;;;;;22.70;7.68;;;;;;;;;;6270468;22;20670;-88
2021/07/22 01:55:25;;;;;;;14.15;7.28;;;;;;;;;;6270915;22;20188;-88
2021/07/22 01:58:37;;;;;;;15.73;8.25;;;;;;;;;;6273500;22;20161;-88
2021/07/22 02:01:43;;;;;;;17.80;7.72;;;;;;;;;;6273405;22;20226;-90
2021/07/22 02:05:12;;;;;;;17.55;7.95;;;;;;;;;;6272824;22;20189;-91
2021/07/22 02:08:20;;;;;;;15.07;7.93;;;;;;;;;;6272299;22;20169;-89
2021/07/22 02:11:26;;;;;;;13.93;7.35;;;;;;;;;;6272351;22;20178;-88
2021/07/22 02:14:31;;;;;;;17.08;8.35;;;;;;;;;;6272055;22;20161;-88
2021/07/22 02:17:38;;;;;;;18.98;8.77;;;;;;;;;;6271575;22;20166;-88
2021/07/22 02:20:43;;;;;;;20.17;8.75;;;;;;;;;;6271969;22;20153;-89
2021/07/22 02:23:50;;;;;;;24.25;9.90;;;;;;;;;;6271330;22;20212;-90
2021/07/22 02:27:16;;;;;;;27.95;11.40;;;;;;;;;;6288365;22;20149;-88
2021/07/22 02:30:23;;;;;;;25.98;11.70;;;;;;;;;;6271182;22;20170;-87
2021/07/22 02:33:29;;;;;;;26.30;11.35;;;;;;;;;;6270713;22;20276;-89
2021/07/22 02:36:35;;;;;;;28.70;12.88;;;;;;;;;;6271614;22;20189;-88
2021/07/22 02:40:01;;;;;;;26.40;11.82;;;;;;;;;;6288752;22;20166;-89
2021/07/22 02:43:07;;;;;;;32.13;12.98;;;;;;;;;;6271159;22;20182;-87
2021/07/22 02:46:13;;;;;;;27.05;11.93;;;;;;;;;;6271097;22;20162;-90
2021/07/22 02:49:31;;;;;;;21.45;10.48;;;;;;;;;;6271010;22;20166;-88
2021/07/22 02:52:37;;;;;;;24.55;11.52;;;;;;;;;;6270022;22;20193;-87
2021/07/22 02:55:44;;;;;;;22.45;10.38;;;;;;;;;;6271025;22;20158;-88
2021/07/22 02:58:50;;;;;;;20.30;10.07;;;;;;;;;;6270296;22;20158;-88
2021/07/22 03:01:57;;;;;;;23.40;8.85;;;;;;;;;;6271847;22;20181;-88
2021/07/22 03:05:03;;;;;;;19.48;9.82;;;;;;;;;;6271024;22;20252;-90
2021/07/22 03:08:09;;;;;;;19.15;10.15;;;;;;;;;;6271145;22;20161;-87
2021/07/22 03:11:15;;;;;;;17.80;9.27;;;;;;;;;;6271272;22;20262;-88
2021/07/22 03:14:21;;;;;;;16.92;9.02;;;;;;;;;;6271508;22;20226;-89
2021/07/22 03:17:27;;;;;;;19.13;9.60;;;;;;;;;;6270768;22;20166;-88
2021/07/22 03:20:38;;;;;;;27.45;10.48;;;;;;;;;;6271253;22;20269;-90
2021/07/22 03:23:45;;;;;;;17.13;8.30;;;;;;;;;;6270335;22;20382;-88
2021/07/22 03:26:51;;;;;;;19.05;8.98;;;;;;;;;;6270415;22;20232;-88
2021/07/22 03:29:57;;;;;;;19.85;8.80;;;;;;;;;;6270428;22;20158;-87
2021/07/22 03:33:03;;;;;;;21.05;9.18;;;;;;;;;;6269764;22;20252;-88
2021/07/22 03:36:11;;;;;;;19.05;9.02;;;;;;;;;;6272707;22;20158;-88
2021/07/22 03:39:19;;;;;;;24.00;9.75;;;;;;;;;;6290975;22;20177;-87
2021/07/22 03:42:27;;;;;;;17.67;9.18;;;;;;;;;;6290531;22;20162;-87
2021/07/22 03:45:41;;;;;;;21.23;8.30;;;;;;;;;;6290333;22;20162;-89
2021/07/22 03:48:48;;;;;;;21.80;9.00;;;;;;;;;;6269945;22;20165;-88
2021/07/22 03:51:57;;;;;;;14.45;8.38;;;;;;;;;;6271870;22;20165;-88
2021/07/22 03:55:09;;;;;;;14.20;8.65;;;;;;;;;;6271053;22;20166;-88
2021/07/22 03:58:35;;;;;;;16.38;8.13;;;;;;;;;;6292129;22;20169;-91
2021/07/22 04:02:08;;;;;;;14.20;7.70;;;;;;;;;;6289853;22;20565;-88
2021/07/22 04:05:19;;;;;;;18.10;8.93;;;;;;;;;;6272250;22;20165;-89
2021/07/22 04:08:25;;;;;;;14.48;8.27;;;;;;;;;;6272258;22;20169;-88
2021/07/22 04:11:42;;;;;;;21.83;7.78;;;;;;;;;;6272093;22;20165;-88
2021/07/22 04:15:12;;;;;;;13.10;7.57;;;;;;;;;;6272421;22;20192;-87
2021/07/22 04:18:28;;;;;;;16.23;8.18;;;;;;;;;;6274099;22;20162;-89
2021/07/22 04:21:52;;;;;;;15.65;7.75;;;;;;;;;;6273694;22;20240;-89
2021/07/22 04:25:14;;;;;;;14.70;8.07;;;;;;;;;;6272551;22;20177;-89
2021/07/22 04:28:32;;;;;;;19.30;8.07;;;;;;;;;;6272242;22;20161;-89
2021/07/22 04:31:40;;;;;;;17.77;7.53;;;;;;;;;;6271629;22;20166;-89
2021/07/22 04:34:56;;;;;;;13.18;7.10;;;;;;;;;;6273324;22;20281;-90
2021/07/22 04:38:24;;;;;;;13.63;7.70;;;;;;;;;;6276036;22;20208;-90
2021/07/22 04:41:53;;;;;;;12.45;7.38;;;;;;;;;;6291889;22;20226;-88
2021/07/22 04:45:08;;;;;;;14.60;7.82;;;;;;;;;;6271818;22;20198;-89
2021/07/22 04:48:37;;;;;;;16.23;7.07;;;;;;;;;;6272455;22;20166;-87
2021/07/22 04:51:59;;;;;;;16.05;7.78;;;;;;;;;;6271219;22;20235;-88
2021/07/22 04:55:13;;;;;;;11.63;7.13;;;;;;;;;;6271680;22;20166;-89
2021/07/22 04:58:18;;;;;;;17.60;7.40;;;;;;;;;;6270427;22;20311;-88
2021/07/22 05:01:28;;;;;;;22.85;8.30;;;;;;;;;;6269794;22;20645;-87
2021/07/22 05:04:39;;;;;;;15.20;7.60;;;;;;;;;;6271876;22;20158;-87
2021/07/22 05:07:44;;;;;;;14.00;7.05;;;;;;;;;;6270063;22;20173;-86
2021/07/22 05:11:07;;;;;;;18.10;8.05;;;;;;;;;;6271134;22;20170;-87
2021/07/22 05:14:20;;;;;;;11.88;7.30;;;;;;;;;;6268849;22;20262;-86
2021/07/22 05:17:39;;;;;;;15.13;7.30;;;;;;;;;;6273674;22;20185;-86
2021/07/22 05:21:08;;;;;;;13.10;7.32;;;;;;;;;;6295980;22;20173;-86
2021/07/22 05:24:20;;;;;;;11.65;7.15;;;;;;;;;;6273528;22;20170;-88
2021/07/22 05:27:46;;;;;;;15.35;7.80;;;;;;;;;;6291491;22;20193;-85
2021/07/22 05:31:08;;;;;;;14.40;8.15;;;;;;;;;;6272103;22;20225;-86
2021/07/22 05:34:22;;;;;;;16.00;7.75;;;;;;;;;;6272182;22;20248;-86
2021/07/22 05:37:47;;;;;;;14.88;8.30;;;;;;;;;;6291175;22;20231;-88
2021/07/22 05:40:52;;;;;;;14.13;7.57;;;;;;;;;;6270212;22;20221;-88
2021/07/22 05:43:58;;;;;;;16.45;7.60;;;;;;;;;;6271709;22;20181;-87
2021/07/22 05:47:03;;;;;;;15.27;7.15;;;;;;;;;;6291139;22;20170;-86
2021/07/22 05:50:09;;;;;;;11.70;7.03;;;;;;;;;;6271079;22;20166;-90
2021/07/22 05:53:16;;;;;;;13.18;7.50;;;;;;;;;;6271792;22;20194;-89
2021/07/22 05:56:21;;;;;;;12.82;6.80;;;;;;;;;;6271374;22;20594;-89
2021/07/22 05:59:26;;;;;;;15.48;7.65;;;;;;;;;;6291373;22;20285;-88
2021/07/22 06:02:31;;;;;;;16.00;6.72;;;;;;;;;;6271934;22;20188;-88
2021/07/22 06:05:36;;;;;;;14.52;6.90;;;;;;;;;;6273714;22;20523;-88
2021/07/22 06:08:43;;;;;;;13.25;6.80;;;;;;;;;;6274030;22;20166;-88
2021/07/22 06:11:48;;;;;;;17.27;7.35;;;;;;;;;;6275002;22;20169;-87
2021/07/22 06:14:54;;;;;;;10.50;6.60;;;;;;;;;;6271984;22;20211;-87
2021/07/22 06:17:59;;;;;;;18.77;7.47;;;;;;;;;;6272182;22;20209;-88
2021/07/22 06:21:04;;;;;;;11.98;6.68;;;;;;;;;;6290190;22;20170;-88
2021/07/22 06:24:11;;;;;;;16.38;7.50;;;;;;;;;;6272592;22;20899;-87
2021/07/22 06:27:16;;;;;;;18.08;6.80;;;;;;;;;;6272624;22;20173;-88
2021/07/22 06:30:21;;;;;;;13.18;7.13;;;;;;;;;;6272630;22;20173;-87
2021/07/22 06:33:26;;;;;;;13.32;6.35;;;;;;;;;;6273607;22;20306;-88
2021/07/22 06:36:32;;;;;;;11.52;5.95;;;;;;;;;;6274885;22;20231;-88
2021/07/22 06:39:39;;;;;;;10.00;5.97;;;;;;;;;;6277440;22;20149;-87
2021/07/22 06:42:45;;;;;;;9.63;5.45;;;;;;;;;;6275312;22;20193;-89
2021/07/22 06:45:51;;;;;;;9.88;5.32;;;;;;;;;;6272811;22;20244;-89
2021/07/22 06:49:01;;;;;;;11.38;5.22;;;;;;;;;;6273616;22;20601;-88
2021/07/22 06:52:09;;;;;;;9.27;5.05;;;;;;;;;;6271629;22;20292;-88
2021/07/22 06:55:15;;;;;;;13.27;5.45;;;;;;;;;;6272421;22;20165;-87
2021/07/22 06:58:21;;;;;;;8.38;5.30;;;;;;;;;;6270705;22;20166;-86
2021/07/22 07:01:26;;;;;;;10.45;5.40;;;;;;;;;;6271770;22;20648;-86
2021/07/22 07:04:32;;;;;;;12.02;5.20;;;;;;;;;;6271776;22;20169;-90
2021/07/22 07:07:37;;;;;;;8.32;5.45;;;;;;;;;;6271368;22;20620;-88
2021/07/22 07:10:47;;;;;;;12.30;6.00;;;;;;;;;;6273851;22;20158;-89
2021/07/22 07:13:53;;;;;;;9.95;5.10;;;;;;;;;;6271655;22;20644;-90
2021/07/22 07:16:59;;;;;;;10.18;6.40;;;;;;;;;;6278054;22;20201;-86
2021/07/22 07:20:05;;;;;;;9.95;5.45;;;;;;;;;;6276706;22;20162;-89
2021/07/22 07:23:10;;;;;;;8.77;4.85;;;;;;;;;;6276026;22;20177;-91
2021/07/22 07:26:17;;;;;;;11.80;4.97;;;;;;;;;;6274335;22;20181;-88
2021/07/22 07:29:22;;;;;;;8.73;4.60;;;;;;;;;;6274911;22;20177;-89
2021/07/22 07:32:28;;;;;;;11.25;4.57;;;;;;;;;;6275429;22;20170;-90
2021/07/22 07:35:33;;;;;;;6.55;3.85;;;;;;;;;;6276106;22;20181;-88
2021/07/22 07:38:39;;;;;;;6.35;3.83;;;;;;;;;;6275207;22;20491;-89
2021/07/22 07:41:47;;;;;;;9.80;4.20;;;;;;;;;;6274144;22;20279;-87
2021/07/22 07:44:53;;;;;;;6.53;3.72;;;;;;;;;;6274618;22;20146;-89
2021/07/22 07:47:59;;;;;;;8.70;3.70;;;;;;;;;;6275238;22;20165;-87
2021/07/22 07:51:08;;;;;;;5.93;3.67;;;;;;;;;;6274538;22;20161;-88
2021/07/22 07:54:13;;;;;;;7.70;3.60;;;;;;;;;;6272424;22;20197;-90
2021/07/22 07:57:20;;;;;;;6.20;3.90;;;;;;;;;;6272350;22;20269;-90
2021/07/22 08:00:25;;;;;;;9.73;4.00;;;;;;;;;;6272709;22;20166;-89
2021/07/22 08:03:31;;;;;;;8.77;3.90;;;;;;;;;;6270268;22;20165;-88
2021/07/22 08:06:36;;;;;;;6.13;3.40;;;;;;;;;;6272444;22;20178;-88
2021/07/22 08:09:41;;;;;;;10.93;4.50;;;;;;;;;;6272282;22;20166;-87
2021/07/22 08:12:48;;;;;;;12.25;4.10;;;;;;;;;;6272920;22;20209;-87
2021/07/22 08:15:53;;;;;;;8.88;4.20;;;;;;;;;;6271774;22;20174;-88
2021/07/22 08:18:58;;;;;;;7.15;3.67;;;;;;;;;;6273372;22;20193;-88
2021/07/22 08:22:03;;;;;;;5.65;3.65;;;;;;;;;;6271252;22;20624;-89
2021/07/22 08:25:10;;;;;;;7.47;4.13;;;;;;;;;;6273650;22;20445;-88
2021/07/22 08:28:17;;;;;;;11.77;4.05;;;;;;;;;;6271860;22;20166;-88
2021/07/22 08:31:22;;;;;;;9.23;3.95;;;;;;;;;;6269993;22;20173;-90
2021/07/22 08:34:27;;;;;;;7.57;4.10;;;;;;;;;;6271937;22;20198;-90
2021/07/22 08:37:33;;;;;;;6.80;3.30;;;;;;;;;;6270397;22;20170;-89
2021/07/22 08:40:40;;;;;;;7.53;3.95;;;;;;;;;;6273242;22;20212;-87
2021/07/22 08:43:48;;;;;;;6.40;3.83;;;;;;;;;;6273311;22;20170;-88
2021/07/22 08:46:53;;;;;;;5.63;3.80;;;;;;;;;;6275414;22;20232;-88
2021/07/22 08:49:58;;;;;;;7.53;3.60;;;;;;;;;;6291978;22;20172;-87
2021/07/22 08:53:03;;;;;;;9.93;3.88;;;;;;;;;;6269683;22;20174;-88
2021/07/22 08:56:09;;;;;;;6.45;4.10;;;;;;;;;;6269879;22;20161;-87
2021/07/22 08:59:17;;;;;;;6.95;3.70;;;;;;;;;;6275261;22;20177;-87
2021/07/22 09:02:24;;;;;;;6.50;3.78;;;;;;;;;;6258441;22;20287;-88
2021/07/22 09:05:30;;;;;;;8.77;3.70;;;;;;;;;;6269713;22;20169;-90
2021/07/22 09:08:35;;;;;;;7.80;4.15;;;;;;;;;;6272483;22;20208;-88
2021/07/22 09:11:53;;;;;;;6.10;3.90;;;;;;;;;;6289144;22;20161;-89
2021/07/22 09:15:01;;;;;;;11.52;4.43;;;;;;;;;;6274496;22;20180;-86
2021/07/22 09:18:23;;;;;;;7.97;4.03;;;;;;;;;;6277131;22;20173;-88
2021/07/22 09:21:28;;;;;;;6.75;3.95;;;;;;;;;;6271438;22;20228;-91
2021/07/22 09:24:47;;;;;;;6.18;3.75;;;;;;;;;;6270207;22;20203;-90
2021/07/22 09:27:52;;;;;;;7.28;3.78;;;;;;;;;;6270993;22;20191;-91
2021/07/22 09:31:00;;;;;;;7.03;4.05;;;;;;;;;;6272741;22;20598;-89
2021/07/22 09:34:05;;;;;;;8.63;4.30;;;;;;;;;;6272989;22;20219;-88
2021/07/22 09:37:11;;;;;;;8.10;4.55;;;;;;;;;;6273410;22;20259;-90
2021/07/22 09:40:18;;;;;;;10.43;4.95;;;;;;;;;;6273879;22;20173;-89
2021/07/22 09:43:37;;;;;;;7.13;3.72;;;;;;;;;;6274133;22;20188;-89
2021/07/22 09:46:45;;;;;;;12.07;4.13;;;;;;;;;;6272435;22;20168;-87
2021/07/22 09:49:51;;;;;;;10.02;4.05;;;;;;;;;;6272602;22;20203;-89
2021/07/22 09:53:07;;;;;;;10.48;5.32;;;;;;;;;;6273957;22;20156;-88
2021/07/22 09:56:35;;;;;;;8.65;4.75;;;;;;;;;;6274132;22;20165;-89
2021/07/22 09:59:40;;;;;;;10.25;4.90;;;;;;;;;;6274208;22;20259;-89
2021/07/22 10:02:48;;;;;;;12.10;4.25;;;;;;;;;;6274628;22;20180;-89
2021/07/22 10:06:05;;;;;;;7.93;4.28;;;;;;;;;;6273638;22;20165;-90
2021/07/22 10:09:10;;;;;;;9.90;5.00;;;;;;;;;;6273428;22;20593;-89
2021/07/22 10:12:18;;;;;;;9.90;5.07;;;;;;;;;;6273945;22;20300;-88
2021/07/22 10:15:26;;;;;;;7.25;4.72;;;;;;;;;;6272107;22;20643;-88
2021/07/22 10:18:35;;;;;;;11.20;4.97;;;;;;;;;;6271664;22;20211;-89
2021/07/22 10:21:40;;;;;;;10.05;5.22;;;;;;;;;;6273296;22;20157;-88
2021/07/22 10:24:45;;;;;;;7.88;5.25;;;;;;;;;;6271136;22;20631;-89
2021/07/22 10:27:51;;;;;;;7.38;5.22;;;;;;;;;;6271344;22;20496;-89
2021/07/22 10:30:58;;;;;;;10.45;5.55;;;;;;;;;;6270861;22;20218;-88
2021/07/22 10:34:05;;;;;;;8.02;4.97;;;;;;;;;;6271654;22;20244;-88
2021/07/22 10:37:10;;;;;;;10.68;5.22;;;;;;;;;;6270208;22;20185;-89
2021/07/22 10:40:16;;;;;;;12.30;7.00;;;;;;;;;;6272159;22;20173;-89
2021/07/22 10:43:43;;;;;;;13.10;5.00;;;;;;;;;;6272180;22;20172;-90
2021/07/22 10:46:56;;;;;;;9.00;5.50;;;;;;;;;;6273015;22;20216;-89
2021/07/22 10:50:04;;;;;;;11.30;5.03;;;;;;;;;;6275010;22;20237;-89
2021/07/22 10:53:09;;;;;;;7.07;4.72;;;;;;;;;;6277523;22;20214;-88
2021/07/22 10:56:15;;;;;;;11.75;5.10;;;;;;;;;;6276384;22;20169;-90
2021/07/22 10:59:22;;;;;;;12.70;4.93;;;;;;;;;;6272584;22;20164;-90
2021/07/22 11:02:43;;;;;;;9.07;4.78;;;;;;;;;;6275555;22;20184;-89
2021/07/22 11:05:59;;;;;;;9.77;4.55;;;;;;;;;;6275470;22;20168;-87
2021/07/22 11:09:08;;;;;;;9.77;4.72;;;;;;;;;;6273393;22;20164;-89
2021/07/22 11:12:13;;;;;;;8.40;4.90;;;;;;;;;;6272773;22;20196;-91
2021/07/22 11:15:20;;;;;;;7.85;4.95;;;;;;;;;;6274650;22;20195;-90
2021/07/22 11:18:46;;;;;;;7.43;4.65;;;;;;;;;;6274392;22;20165;-88
2021/07/22 11:21:54;;;;;;;6.07;4.60;;;;;;;;;;6276094;22;20152;-90
2021/07/22 11:25:02;;;;;;;6.22;4.82;;;;;;;;;;6274235;22;20504;-88
2021/07/22 11:28:07;;;;;;;7.07;4.70;;;;;;;;;;6273902;22;20251;-89
2021/07/22 11:31:13;;;;;;;7.90;4.88;;;;;;;;;;6292752;22;20201;-88
2021/07/22 11:34:29;;;;;;;9.18;5.03;;;;;;;;;;6275166;22;20232;-90
2021/07/22 11:37:36;;;;;;;13.60;5.13;;;;;;;;;;6273142;22;20193;-89
2021/07/22 11:40:42;;;;;;;7.88;4.97;;;;;;;;;;6272282;22;20244;-90
2021/07/22 11:43:48;;;;;;;7.35;4.78;;;;;;;;;;6271349;22;20165;-88
2021/07/22 11:46:53;;;;;;;10.38;5.20;;;;;;;;;;6272203;22;20173;-90
2021/07/22 11:49:58;;;;;;;8.88;4.82;;;;;;;;;;6274225;22;20239;-88
2021/07/22 11:53:21;;;;;;;11.77;4.70;;;;;;;;;;6272243;22;20160;-89
2021/07/22 11:56:31;;;;;;;9.63;4.60;;;;;;;;;;6274116;22;20169;-88
2021/07/22 11:59:37;;;;;;;9.07;4.50;;;;;;;;;;6272890;22;20166;-88
2021/07/22 12:02:46;;;;;;;7.10;4.80;;;;;;;;;;6278657;22;20172;-89
2021/07/22 12:05:52;;;;;;;5.68;3.97;;;;;;;;;;6295748;22;20169;-89
2021/07/22 13:45:46;;;;;;;8.48;5.28;;;;;;;;;;6284994;22;20197;-88
2021/07/22 13:48:52;;;;;;;9.07;4.40;;;;;;;;;;6271099;22;20169;-89
2021/07/22 13:51:57;;;;;;;8.52;4.30;;;;;;;;;;6272386;22;20196;-89
2021/07/22 13:55:06;;;;;;;6.95;4.50;;;;;;;;;;6274755;22;20213;-90
2021/07/22 13:58:11;;;;;;;9.38;4.90;;;;;;;;;;6271795;22;20165;-90
2021/07/22 14:01:18;;;;;;;7.63;4.72;;;;;;;;;;6269586;22;20176;-89
2021/07/22 14:04:24;;;;;;;8.23;4.45;;;;;;;;;;6271255;22;20196;-89
2021/07/22 14:07:29;;;;;;;11.00;4.68;;;;;;;;;;6268770;22;20173;-88
2021/07/22 14:10:35;;;;;;;7.70;4.72;;;;;;;;;;6272530;22;20168;-88
2021/07/22 14:13:40;;;;;;;8.45;4.85;;;;;;;;;;6270883;22;20184;-86
2021/07/22 14:16:47;;;;;;;7.20;4.70;;;;;;;;;;6270789;22;20161;-88
2021/07/22 14:19:51;;;;;;;9.50;4.40;;;;;;;;;;6273158;22;20188;-88
2021/07/22 14:22:57;;;;;;;8.32;4.20;;;;;;;;;;6268319;22;20492;-87
2021/07/22 14:26:02;;;;;;;7.72;4.50;;;;;;;;;;6271578;22;20173;-88
2021/07/22 14:29:07;;;;;;;9.57;4.75;;;;;;;;;;6271787;22;20173;-89
2021/07/22 14:32:14;;;;;;;7.68;4.18;;;;;;;;;;6273377;22;20504;-89
2021/07/22 14:35:19;;;;;;;9.30;4.68;;;;;;;;;;6275483;22;20172;-90
2021/07/22 14:38:25;;;;;;;6.88;4.50;;;;;;;;;;6277314;22;20244;-90
2021/07/22 14:41:30;;;;;;;6.55;4.05;;;;;;;;;;6273367;22;20191;-90
2021/07/22 14:44:36;;;;;;;6.45;4.05;;;;;;;;;;6277239;22;20189;-88
2021/07/22 14:47:45;;;;;;;7.25;4.63;;;;;;;;;;6278427;22;20212;-89
2021/07/22 14:50:52;;;;;;;8.13;4.40;;;;;;;;;;6276449;22;20674;-90
2021/07/22 14:53:57;;;;;;;7.63;4.35;;;;;;;;;;6271218;22;20161;-88
2021/07/22 14:57:02;;;;;;;9.48;3.92;;;;;;;;;;6269912;22;20226;-88
2021/07/22 15:00:08;;;;;;;6.97;4.15;;;;;;;;;;6270606;22;20166;-87
2021/07/22 15:03:16;;;;;;;5.28;4.05;;;;;;;;;;6273163;22;20212;-88
2021/07/22 15:06:21;;;;;;;8.20;4.43;;;;;;;;;;6270527;22;20165;-89
2021/07/22 15:09:26;;;;;;;9.32;4.15;;;;;;;;;;6271648;22;20548;-89
2021/07/22 15:12:30;;;;;;;7.13;4.38;;;;;;;;;;6273129;22;20201;-88
2021/07/22 15:15:37;;;;;;;11.48;4.30;;;;;;;;;;6270092;22;20341;-86
2021/07/22 15:18:44;;;;;;;7.28;4.32;;;;;;;;;;6272241;22;20173;-86
2021/07/22 15:21:49;;;;;;;8.23;4.57;;;;;;;;;;6272530;22;20276;-88
2021/07/22 15:24:54;;;;;;;6.97;4.65;;;;;;;;;;6269898;22;20170;-88
2021/07/22 15:28:00;;;;;;;7.60;5.00;;;;;;;;;;6268406;22;20170;-88
2021/07/22 15:31:04;;;;;;;8.30;4.93;;;;;;;;;;6268406;22;20504;-89
2021/07/22 15:34:11;;;;;;;8.20;4.50;;;;;;;;;;6269557;22;20174;-90
2021/07/22 15:37:16;;;;;;;8.10;4.72;;;;;;;;;;6270694;22;20280;-87
2021/07/22 15:40:21;;;;;;;10.00;4.90;;;;;;;;;;6270460;22;20180;-89
2021/07/22 15:43:26;;;;;;;8.95;5.03;;;;;;;;;;6272309;22;20616;-88
2021/07/22 15:46:31;;;;;;;9.13;4.72;;;;;;;;;;6288629;22;20184;-87
2021/07/22 15:49:38;;;;;;;8.50;4.85;;;;;;;;;;6270265;22;20204;-88
2021/07/22 15:52:43;;;;;;;7.78;4.78;;;;;;;;;;6273400;22;20174;-87
2021/07/22 15:55:49;;;;;;;7.70;4.40;;;;;;;;;;6273676;22;20193;-89
2021/07/22 15:58:55;;;;;;;9.32;4.80;;;;;;;;;;6273159;22;20153;-88
2021/07/22 16:02:03;;;;;;;8.35;4.40;;;;;;;;;;6271937;22;20190;-91
2021/07/22 16:05:11;;;;;;;8.38;5.13;;;;;;;;;;6270754;22;20170;-89
2021/07/22 16:08:16;;;;;;;6.43;4.65;;;;;;;;;;6268851;22;20253;-90
2021/07/22 16:11:21;;;;;;;12.10;5.07;;;;;;;;;;6271326;22;20157;-90
2021/07/22 16:14:26;;;;;;;9.50;4.90;;;;;;;;;;6270803;22;20173;-87
2021/07/22 16:17:31;;;;;;;13.15;4.57;;;;;;;;;;6269377;22;20166;-88
2021/07/22 16:20:40;;;;;;;6.60;4.50;;;;;;;;;;6268270;22;20216;-88
2021/07/22 16:23:45;;;;;;;8.65;4.63;;;;;;;;;;6268637;22;20181;-89
2021/07/22 16:26:50;;;;;;;6.75;4.40;;;;;;;;;;6269368;22;20277;-91
2021/07/22 16:29:55;;;;;;;9.10;4.93;;;;;;;;;;6268369;22;20165;-86
2021/07/22 16:33:02;;;;;;;12.35;6.22;;;;;;;;;;6270642;22;20196;-88
2021/07/22 16:36:09;;;;;;;14.15;6.20;;;;;;;;;;6271209;22;20197;-89
2021/07/22 16:39:13;;;;;;;9.05;5.15;;;;;;;;;;6270038;22;20491;-88
2021/07/22 16:42:19;;;;;;;6.82;4.90;;;;;;;;;;6271257;22;20177;-90
2021/07/22 16:45:23;;;;;;;8.05;5.05;;;;;;;;;;6270747;22;20588;-89
2021/07/22 16:48:31;;;;;;;10.55;5.20;;;;;;;;;;6271219;22;20297;-87
2021/07/22 16:51:38;;;;;;;10.70;4.72;;;;;;;;;;6269979;22;20169;-90
2021/07/22 16:54:44;;;;;;;7.95;4.45;;;;;;;;;;6268284;22;20177;-86
2021/07/22 16:57:49;;;;;;;9.25;5.03;;;;;;;;;;6267845;22;20201;-90
2021/07/22 17:00:54;;;;;;;7.00;4.80;;;;;;;;;;6269240;22;20189;-89
2021/07/22 17:03:59;;;;;;;10.07;4.97;;;;;;;;;;6268476;22;20166;-89
2021/07/22 17:07:06;;;;;;;9.85;5.30;;;;;;;;;;6266598;22;20277;-86
2021/07/22 17:10:12;;;;;;;8.38;5.10;;;;;;;;;;6268371;22;20200;-89
2021/07/22 17:13:17;;;;;;;11.07;5.47;;;;;;;;;;6268585;22;20208;-88
2021/07/22 17:16:21;;;;;;;9.90;4.93;;;;;;;;;;6268804;22;20497;-88
2021/07/22 17:19:27;;;;;;;9.75;5.07;;;;;;;;;;6269278;22;20166;-88
2021/07/22 17:22:34;;;;;;;10.80;5.13;;;;;;;;;;6271087;22;20221;-90
2021/07/22 17:25:39;;;;;;;11.35;6.10;;;;;;;;;;6270488;22;20280;-88
2021/07/22 17:28:45;;;;;;;9.48;5.05;;;;;;;;;;6271189;22;20169;-88
2021/07/22 17:31:50;;;;;;;9.02;5.03;;;;;;;;;;6268745;22;20173;-89
2021/07/22 17:34:58;;;;;;;8.80;5.13;;;;;;;;;;6269569;22;20162;-90
2021/07/22 17:38:05;;;;;;;9.65;5.30;;;;;;;;;;6268801;22;20270;-89
2021/07/22 17:41:10;;;;;;;10.70;5.57;;;;;;;;;;6269353;22;20176;-88
2021/07/22 17:44:16;;;;;;;8.80;5.05;;;;;;;;;;6252237;22;20302;-88
2021/07/22 17:47:22;;;;;;;8.52;5.00;;;;;;;;;;6273571;22;20205;-86
2021/07/22 17:50:27;;;;;;;10.32;5.05;;;;;;;;;;6271658;22;20247;-87
2021/07/22 17:53:34;;;;;;;10.00;5.20;;;;;;;;;;6269192;22;20173;-88
2021/07/22 17:56:40;;;;;;;14.18;5.38;;;;;;;;;;6270490;22;20241;-88
2021/07/22 17:59:45;;;;;;;8.98;5.10;;;;;;;;;;6268858;22;20217;-88
2021/07/22 18:02:51;;;;;;;9.00;4.90;;;;;;;;;;6268604;22;20161;-88
2021/07/22 18:05:56;;;;;;;9.60;5.45;;;;;;;;;;6268797;22;20173;-88
2021/07/22 18:09:03;;;;;;;12.52;5.10;;;;;;;;;;6266442;22;20668;-91
2021/07/22 18:12:08;;;;;;;11.82;4.93;;;;;;;;;;6265310;22;20170;-86
2021/07/22 18:15:13;;;;;;;12.57;5.28;;;;;;;;;;6264796;22;20270;-88
2021/07/22 18:18:18;;;;;;;14.65;5.60;;;;;;;;;;6266322;22;20220;-90
2021/07/22 18:21:24;;;;;;;10.02;5.53;;;;;;;;;;6265393;22;20170;-88
2021/07/22 18:24:30;;;;;;;8.93;5.25;;;;;;;;;;6268802;22;20178;-89
2021/07/22 18:27:35;;;;;;;14.13;5.50;;;;;;;;;;6266160;22;20169;-88
2021/07/22 18:30:42;;;;;;;10.88;5.38;;;;;;;;;;6267646;22;20197;-88
2021/07/22 18:33:49;;;;;;;20.23;10.93;;;;;;;;;;6268808;22;20237;-89
2021/07/22 18:36:58;;;;;;;11.25;6.10;;;;;;;;;;6267251;22;20197;-88
2021/07/22 18:40:04;;;;;;;10.30;5.43;;;;;;;;;;6267819;22;20169;-89
2021/07/22 18:43:11;;;;;;;12.15;5.63;;;;;;;;;;6268475;22;20224;-87
2021/07/22 18:46:16;;;;;;;9.15;5.47;;;;;;;;;;6267830;22;20186;-87
2021/07/22 18:49:23;;;;;;;18.65;5.63;;;;;;;;;;6269696;22;20169;-90
2021/07/22 18:52:29;;;;;;;9.93;5.50;;;;;;;;;;6267836;22;20177;-90
2021/07/22 18:55:38;;;;;;;10.63;5.40;;;;;;;;;;6267017;22;20504;-90
2021/07/22 18:58:44;;;;;;;15.93;5.80;;;;;;;;;;6268350;22;20173;-88
2021/07/22 19:01:49;;;;;;;12.20;6.20;;;;;;;;;;6272078;22;20173;-89
2021/07/22 19:04:55;;;;;;;17.23;5.88;;;;;;;;;;6287870;22;20173;-88
2021/07/22 19:08:00;;;;;;;10.40;5.75;;;;;;;;;;6269721;22;20328;-89
2021/07/22 19:11:08;;;;;;;13.20;6.63;;;;;;;;;;6271440;22;20174;-88
2021/07/22 19:14:15;;;;;;;13.48;6.72;;;;;;;;;;6273741;22;20174;-89
2021/07/22 19:17:21;;;;;;;11.30;6.63;;;;;;;;;;6270528;22;20197;-88
2021/07/22 19:20:26;;;;;;;9.50;5.60;;;;;;;;;;6272068;22;20200;-89
2021/07/22 19:23:31;;;;;;;9.35;6.28;;;;;;;;;;6271498;22;20181;-89
2021/07/22 19:26:37;;;;;;;12.05;6.93;;;;;;;;;;6270941;22;20170;-88
2021/07/22 19:29:44;;;;;;;15.70;7.38;;;;;;;;;;6270537;22;20170;-89
2021/07/22 19:32:50;;;;;;;11.35;6.35;;;;;;;;;;6266762;22;20173;-88
2021/07/22 19:35:59;;;;;;;17.15;6.63;;;;;;;;;;6269341;22;20166;-88
2021/07/22 19:39:04;;;;;;;11.40;6.22;;;;;;;;;;6268602;22;20224;-87
2021/07/22 19:42:10;;;;;;;13.82;6.00;;;;;;;;;;6269901;22;20163;-87
2021/07/22 19:45:15;;;;;;;12.02;6.88;;;;;;;;;;6270350;22;20189;-89
2021/07/22 19:48:21;;;;;;;13.23;6.80;;;;;;;;;;6270997;22;20170;-89
2021/07/22 19:51:26;;;;;;;11.98;6.88;;;;;;;;;;6269280;22;20161;-90
2021/07/22 19:54:31;;;;;;;15.40;7.13;;;;;;;;;;6270657;22;20173;-90
2021/07/22 19:57:37;;;;;;;13.45;7.68;;;;;;;;;;6268703;22;20193;-88
2021/07/22 20:00:42;;;;;;;16.33;7.53;;;;;;;;;;6266818;22;20162;-88
2021/07/22 20:03:48;;;;;;;13.52;7.72;;;;;;;;;;6268705;22;20308;-87
2021/07/22 20:06:53;;;;;;;15.10;7.85;;;;;;;;;;6270182;22;20679;-90
2021/07/22 20:09:58;;;;;;;15.52;7.60;;;;;;;;;;6268870;22;20325;-89
2021/07/22 20:13:05;;;;;;;19.48;8.15;;;;;;;;;;6267922;22;20526;-88
2021/07/22 20:16:10;;;;;;;14.85;7.90;;;;;;;;;;6269618;22;20196;-87